createdAt,value
2023-06-29T00:00:28.127Z,28.69
2023-06-29T00:05:30.039Z,28.69
2023-06-29T00:10:31.959Z,28.73
2023-06-29T00:15:33.786Z,28.73
2023-06-29T00:20:36.914Z,28.70
2023-06-29T00:25:40.388Z,28.74
2023-06-29T00:30:42.432Z,28.71
2023-06-29T00:35:44.659Z,28.76
2023-06-29T00:40:48.356Z,28.79
2023-06-29T00:45:50.311Z,28.71
2023-06-29T00:50:52.285Z,28.77
2023-06-29T00:55:54.714Z,28.75
2023-06-29T01:00:57.403Z,28.71
2023-06-29T01:06:05.718Z,28.75
2023-06-29T01:11:08.712Z,28.76
2023-06-29T01:16:13.091Z,28.75
2023-06-29T01:21:17.829Z,28.72
2023-06-29T01:26:19.865Z,28.69
2023-06-29T01:31:21.797Z,28.72
2023-06-29T01:36:33.117Z,28.73
2023-06-29T01:41:41.295Z,28.73
2023-06-29T01:46:44.959Z,28.77
2023-06-29T01:51:46.970Z,28.76
2023-06-29T01:56:48.772Z,28.73
2023-06-29T02:01:50.847Z,28.70
2023-06-29T02:06:52.797Z,28.73
2023-06-29T02:11:54.731Z,28.78
2023-06-29T02:16:57.017Z,28.82
2023-06-29T02:21:58.948Z,28.76
2023-06-29T02:27:00.790Z,28.71
2023-06-29T02:32:02.722Z,28.73
2023-06-29T02:37:04.757Z,28.78
2023-06-29T02:42:06.751Z,28.82
2023-06-29T02:47:08.738Z,28.79
2023-06-29T02:52:10.805Z,28.71
2023-06-29T02:57:12.812Z,28.80
2023-06-29T03:02:14.743Z,28.79
2023-06-29T03:07:16.801Z,28.80
2023-06-29T03:12:21.984Z,28.70
2023-06-29T03:17:25.980Z,28.68
2023-06-29T03:22:28.464Z,28.66
2023-06-29T03:27:30.340Z,28.76
2023-06-29T03:32:32.242Z,28.70
2023-06-29T03:37:34.134Z,28.74
2023-06-29T03:42:35.965Z,28.75
2023-06-29T03:47:37.987Z,28.74
2023-06-29T03:52:39.916Z,28.69
2023-06-29T03:57:41.874Z,28.77
2023-06-29T04:02:43.881Z,28.69
2023-06-29T04:07:45.752Z,28.72
2023-06-29T04:12:47.660Z,28.67
2023-06-29T04:17:49.697Z,28.75
2023-06-29T04:22:51.711Z,28.74
2023-06-29T04:27:54.002Z,28.72
2023-06-29T04:32:57.688Z,28.70
2023-06-29T04:37:59.731Z,28.75
2023-06-29T04:43:01.798Z,28.74
2023-06-29T04:48:03.669Z,28.69
2023-06-29T04:53:13.765Z,28.72
2023-06-29T04:58:15.678Z,28.74
2023-06-29T05:03:17.827Z,28.72
2023-06-29T05:08:20.269Z,28.71
2023-06-29T05:13:22.156Z,28.72
2023-06-29T05:18:24.195Z,28.71
2023-06-29T05:23:26.050Z,28.72
2023-06-29T05:28:28.238Z,28.79
2023-06-29T05:33:30.297Z,28.76
2023-06-29T05:38:35.391Z,28.74
2023-06-29T05:43:37.471Z,28.75
2023-06-29T05:48:39.360Z,28.76
2023-06-29T05:53:41.293Z,28.76
2023-06-29T05:58:43.144Z,28.71
2023-06-29T06:03:45.213Z,28.73
2023-06-29T06:08:47.295Z,28.74
2023-06-29T06:13:49.289Z,28.70
2023-06-29T06:18:51.414Z,28.70
2023-06-29T06:23:54.634Z,28.67
2023-06-29T06:28:56.734Z,28.67
2023-06-29T06:33:58.760Z,28.71
2023-06-29T06:39:00.646Z,28.62
2023-06-29T06:44:02.673Z,28.64
2023-06-29T06:49:04.782Z,28.65
2023-06-29T06:54:06.644Z,28.66
2023-06-29T06:59:09.247Z,28.65
2023-06-29T07:04:12.392Z,28.65
2023-06-29T07:09:14.662Z,28.60
2023-06-29T07:14:20.685Z,28.59
2023-06-29T07:24:28.038Z,28.54
2023-06-29T07:29:31.820Z,28.46
2023-06-29T07:34:34.080Z,28.45
2023-06-29T07:39:36.860Z,28.40
2023-06-29T07:44:38.876Z,28.47
2023-06-29T07:49:40.842Z,28.63
2023-06-29T07:54:43.402Z,28.76
2023-06-29T07:59:45.271Z,28.76
2023-06-29T08:09:52.114Z,28.82
2023-06-29T08:14:54.442Z,28.91
2023-06-29T08:19:56.430Z,28.68
2023-06-29T08:24:58.414Z,28.67
2023-06-29T08:30:00.300Z,28.70
2023-06-29T08:35:02.252Z,28.73
2023-06-29T08:40:06.342Z,28.80
2023-06-29T08:45:08.511Z,28.81
2023-06-29T08:50:11.906Z,28.76
2023-06-29T08:55:13.939Z,28.83
2023-06-29T09:00:16.992Z,28.84
2023-06-29T09:05:18.891Z,28.72
2023-06-29T09:10:20.992Z,28.60
2023-06-29T09:15:27.475Z,28.49
2023-06-29T09:20:35.515Z,28.69
2023-06-29T09:25:40.182Z,28.69
2023-06-29T09:30:43.345Z,28.71
2023-06-29T09:35:52.136Z,28.77
2023-06-29T09:40:55.607Z,28.75
2023-06-29T09:46:08.862Z,28.71
2023-06-29T09:51:11.171Z,28.69
2023-06-29T09:56:14.780Z,28.71
2023-06-29T10:01:19.565Z,28.62
2023-06-29T10:06:37.816Z,28.68
2023-06-29T10:11:43.267Z,28.71
2023-06-29T10:16:51.983Z,28.71
2023-06-29T10:22:00.693Z,28.66
2023-06-29T10:27:04.024Z,28.69
2023-06-29T10:32:06.497Z,28.70
2023-06-29T10:37:08.602Z,28.72
2023-06-29T10:42:39.506Z,28.67
2023-06-29T10:47:42.318Z,28.69
2023-06-29T10:52:45.062Z,28.71
2023-06-29T10:57:48.156Z,28.66
2023-06-29T11:02:50.757Z,28.71
2023-06-29T11:07:54.068Z,28.69
2023-06-29T11:12:56.766Z,28.67
2023-06-29T11:18:04.328Z,28.69
2023-06-29T11:23:08.645Z,28.74
2023-06-29T11:28:10.637Z,28.73
2023-06-29T11:33:28.600Z,28.71
2023-06-29T11:38:35.151Z,28.66
2023-06-29T11:43:37.628Z,28.70
2023-06-29T11:48:39.557Z,28.74
2023-06-29T11:53:41.486Z,28.71
2023-06-29T11:58:44.336Z,28.72
2023-06-29T12:03:48.523Z,28.83
2023-06-29T12:08:53.625Z,28.89
2023-06-29T12:13:56.799Z,28.91
2023-06-29T12:18:59.902Z,28.94
2023-06-29T12:24:04.645Z,28.91
2023-06-29T12:29:06.557Z,28.81
2023-06-29T12:34:08.927Z,28.82
2023-06-29T12:39:10.777Z,28.76
2023-06-29T12:44:12.798Z,28.76
2023-06-29T12:49:14.850Z,28.71
2023-06-29T12:54:16.956Z,28.70
2023-06-29T12:59:18.893Z,28.69
2023-06-29T13:04:21.217Z,28.69
2023-06-29T13:09:23.418Z,28.71
2023-06-29T13:14:25.297Z,28.65
2023-06-29T13:19:28.662Z,28.66
2023-06-29T13:24:30.676Z,28.69
2023-06-29T13:29:33.422Z,28.68
2023-06-29T13:34:35.612Z,28.70
2023-06-29T13:39:39.043Z,28.67
2023-06-29T13:44:41.152Z,28.69
2023-06-29T13:49:43.167Z,28.69
2023-06-29T13:54:45.248Z,28.70
2023-06-29T13:59:48.414Z,28.66
2023-06-29T14:04:50.244Z,28.68
2023-06-29T14:09:52.132Z,28.69
2023-06-29T14:14:54.055Z,28.71
2023-06-29T14:19:56.876Z,28.68
2023-06-29T14:24:58.668Z,28.65
2023-06-29T14:30:00.597Z,28.69
2023-06-29T14:35:02.752Z,28.69
2023-06-29T14:40:07.070Z,28.73
2023-06-29T14:45:09.490Z,28.73
2023-06-29T14:50:11.939Z,28.66
2023-06-29T14:55:13.928Z,28.74
2023-06-29T15:00:16.988Z,28.76
2023-06-29T15:05:19.098Z,28.74
2023-06-29T15:10:21.150Z,28.73
2023-06-29T15:15:23.720Z,28.74
2023-06-29T15:20:25.811Z,28.70
2023-06-29T15:25:27.961Z,28.73
2023-06-29T15:30:30.265Z,28.75
2023-06-29T15:35:32.845Z,28.74
2023-06-29T15:40:34.928Z,28.74
2023-06-29T15:45:38.445Z,28.73
2023-06-29T15:50:40.315Z,28.71
2023-06-29T15:55:42.272Z,28.71
2023-06-29T16:00:44.256Z,28.70
2023-06-29T16:05:46.552Z,28.70
2023-06-29T16:10:48.700Z,28.75
2023-06-29T16:15:50.561Z,28.74
2023-06-29T16:20:52.971Z,28.67
2023-06-29T16:25:54.966Z,28.63
2023-06-29T16:30:56.984Z,28.50
2023-06-29T16:35:59.154Z,28.54
2023-06-29T16:41:01.109Z,28.69
2023-06-29T16:46:03.786Z,28.70
2023-06-29T16:51:05.843Z,28.68
2023-06-29T16:56:07.775Z,28.70
2023-06-29T17:01:10.776Z,28.73
2023-06-29T17:06:12.931Z,28.73
2023-06-29T17:11:15.106Z,28.68
2023-06-29T17:16:17.255Z,28.67
2023-06-29T17:21:21.120Z,28.65
2023-06-29T17:26:24.357Z,28.69
2023-06-29T17:31:27.045Z,28.70
2023-06-29T17:36:28.915Z,28.70
2023-06-29T17:41:30.703Z,28.75
2023-06-29T17:46:34.299Z,28.69
2023-06-29T17:51:36.524Z,28.41
2023-06-29T17:56:38.373Z,28.54
2023-06-29T18:01:40.650Z,28.58
2023-06-29T18:06:42.705Z,28.51
2023-06-29T18:11:44.839Z,28.50
2023-06-29T18:16:46.999Z,28.50
2023-06-29T18:21:49.064Z,28.48
2023-06-29T18:26:51.018Z,28.50
2023-06-29T18:31:53.815Z,28.49
2023-06-29T18:36:56.588Z,28.47
2023-06-29T18:41:58.792Z,28.43
2023-06-29T18:47:15.077Z,28.42
2023-06-29T18:52:17.230Z,28.44
2023-06-29T18:57:19.315Z,28.47
2023-06-29T19:02:21.473Z,28.46
2023-06-29T19:07:23.529Z,28.48
2023-06-29T19:12:25.573Z,28.43
2023-06-29T19:17:29.481Z,28.48
2023-06-29T19:22:31.701Z,28.37
2023-06-29T19:27:34.169Z,28.46
2023-06-29T19:32:36.417Z,28.34
2023-06-29T19:37:38.335Z,28.44
2023-06-29T19:42:40.527Z,28.39
2023-06-29T19:47:44.270Z,28.39
2023-06-29T19:52:46.305Z,28.37
2023-06-29T19:57:48.130Z,28.36
2023-06-29T20:02:50.117Z,28.40
2023-06-29T20:07:52.117Z,28.43
2023-06-29T20:12:54.145Z,28.43
2023-06-29T20:17:56.061Z,28.40
2023-06-29T20:22:58.243Z,28.37
2023-06-29T20:28:00.274Z,28.36
2023-06-29T20:33:02.448Z,28.51
2023-06-29T20:38:04.450Z,28.52
2023-06-29T20:43:06.517Z,28.55
2023-06-29T20:48:08.593Z,28.53
2023-06-29T20:53:10.788Z,28.54
2023-06-29T20:58:12.723Z,28.46
2023-06-29T21:03:15.778Z,28.50
2023-06-29T21:08:17.782Z,28.51
2023-06-29T21:13:19.836Z,28.54
2023-06-29T21:18:21.968Z,28.54
2023-06-29T21:23:24.042Z,28.51
2023-06-29T21:28:26.480Z,28.51
2023-06-29T21:33:28.873Z,28.50
2023-06-29T21:38:32.181Z,28.54
2023-06-29T21:43:34.483Z,28.51
2023-06-29T21:48:37.271Z,28.50
2023-06-29T21:53:39.261Z,28.47
2023-06-29T21:58:41.108Z,28.46
2023-06-29T22:03:43.170Z,28.48
2023-06-29T22:08:45.020Z,28.47
2023-06-29T22:13:47.479Z,28.48
2023-06-29T22:18:52.926Z,28.46
2023-06-29T22:23:56.292Z,28.47
2023-06-29T22:28:58.103Z,28.51
2023-06-29T22:34:00.080Z,28.48
2023-06-29T22:39:02.762Z,28.48
2023-06-29T22:44:05.108Z,28.46
2023-06-29T22:49:07.324Z,28.46
2023-06-29T22:54:10.288Z,28.47
2023-06-29T22:59:13.135Z,28.44
2023-06-29T23:04:15.392Z,28.46
2023-06-29T23:09:17.555Z,28.43
2023-06-29T23:14:19.867Z,28.45
2023-06-29T23:19:22.245Z,28.45
2023-06-29T23:24:24.334Z,28.41
2023-06-29T23:29:26.307Z,28.43
2023-06-29T23:34:28.328Z,28.43
2023-06-29T23:39:36.006Z,28.39
2023-06-29T23:44:42.002Z,28.42
2023-06-29T23:49:44.635Z,28.38
2023-06-29T23:54:46.559Z,28.34
2023-06-29T23:59:48.594Z,28.38
